NKS366 KFLL-TIST
Flight info
| Callsign | NKS366 |
|---|---|
| Flight time | 2h 6m |
| Altitude | 39000 |
| Route | SNAPR2 SUMAC Y421 HAGIT Y290 JETSS |
| Aircraft | A20N/M-SDE2E3FGHIRWXY/LB1 |
Departure
| Time | 2026-05-04 07:16 |
|---|---|
| Airport | Fort Lauderdale Hollywood International Airport (KFLL) |
Arrival
| Time | 2026-05-04 09:22 |
|---|---|
| Airport | Cyril E. King Airport (TIST) |
| Time | Latitude | Longitude | Altitude | Speed | Heading |
|---|---|---|---|---|---|
| 2026-05-04 06:36 | 26.06880 | -80.14297 | 19 ft | 0 kts | 360° |
| 2026-05-04 07:01 | 26.06817 | -80.14245 | 19 ft | 0 kts | 270° |
| 2026-05-04 07:06 | 26.06817 | -80.14246 | 19 ft | 0 kts | 270° |
| 2026-05-04 07:07 | 26.06817 | -80.14263 | 19 ft | 4 kts | 270° |
| 2026-05-04 07:08 | 26.06770 | -80.14605 | 18 ft | 5 kts | 236° |
| 2026-05-04 07:09 | 26.06765 | -80.14648 | 18 ft | 7 kts | 269° |
| 2026-05-04 07:09 | 26.06766 | -80.14705 | 18 ft | 7 kts | 271° |
| 2026-05-04 07:09 | 26.06767 | -80.14759 | 18 ft | 7 kts | 271° |
| 2026-05-04 07:09 | 26.06767 | -80.14817 | 18 ft | 8 kts | 269° |
| 2026-05-04 07:10 | 26.06767 | -80.14889 | 18 ft | 10 kts | 270° |
| 2026-05-04 07:10 | 26.06768 | -80.14973 | 19 ft | 12 kts | 271° |
| 2026-05-04 07:12 | 26.06697 | -80.15585 | 19 ft | 9 kts | 271° |
| 2026-05-04 07:12 | 26.06698 | -80.15664 | 19 ft | 11 kts | 270° |
| 2026-05-04 07:12 | 26.06699 | -80.15756 | 19 ft | 13 kts | 272° |
| 2026-05-04 07:12 | 26.06681 | -80.15817 | 21 ft | 2 kts | 212° |
| 2026-05-04 07:13 | 26.06680 | -80.15817 | 20 ft | 0 kts | 212° |
| 2026-05-04 07:14 | 26.06637 | -80.15827 | 20 ft | 6 kts | 174° |
| 2026-05-04 07:14 | 26.06606 | -80.15819 | 21 ft | 7 kts | 160° |
| 2026-05-04 07:15 | 26.06585 | -80.15774 | 22 ft | 7 kts | 85° |
| 2026-05-04 07:15 | 26.06589 | -80.15665 | 25 ft | 27 kts | 90° |
| 2026-05-04 07:15 | 26.06586 | -80.15183 | 24 ft | 100 kts | 90° |
| 2026-05-04 07:15 | 26.06579 | -80.14143 | 91 ft | 166 kts | 89° |
| 2026-05-04 07:16 | 26.06568 | -80.12821 | 684 ft | 182 kts | 88° |
| 2026-05-04 07:16 | 26.06610 | -80.11279 | 1148 ft | 206 kts | 88° |
| 2026-05-04 07:16 | 26.06647 | -80.09653 | 1705 ft | 216 kts | 89° |
| 2026-05-04 07:16 | 26.06672 | -80.07946 | 2162 ft | 229 kts | 90° |
| 2026-05-04 07:17 | 26.06690 | -80.06114 | 2623 ft | 242 kts | 90° |
| 2026-05-04 07:17 | 26.06704 | -80.04271 | 3513 ft | 232 kts | 90° |
| 2026-05-04 07:17 | 26.06716 | -80.02496 | 4363 ft | 228 kts | 90° |
| 2026-05-04 07:17 | 26.06719 | -80.00722 | 5033 ft | 231 kts | 90° |
| 2026-05-04 07:18 | 26.06708 | -79.98914 | 5662 ft | 235 kts | 91° |
| 2026-05-04 07:18 | 26.06692 | -79.97087 | 6289 ft | 238 kts | 91° |
| 2026-05-04 07:18 | 26.06675 | -79.95231 | 6897 ft | 242 kts | 91° |
| 2026-05-04 07:18 | 26.06658 | -79.93368 | 7494 ft | 245 kts | 90° |
| 2026-05-04 07:19 | 26.06639 | -79.91453 | 8103 ft | 249 kts | 90° |
| 2026-05-04 07:19 | 26.06620 | -79.89511 | 8702 ft | 253 kts | 90° |
| 2026-05-04 07:19 | 26.06601 | -79.87541 | 9293 ft | 259 kts | 90° |
| 2026-05-04 07:19 | 26.06580 | -79.85436 | 9560 ft | 285 kts | 90° |
| 2026-05-04 07:20 | 26.06505 | -79.83142 | 9869 ft | 307 kts | 96° |
| 2026-05-04 07:20 | 26.06203 | -79.80725 | 10245 ft | 326 kts | 100° |
| 2026-05-04 07:20 | 26.05807 | -79.78153 | 10504 ft | 347 kts | 101° |
| 2026-05-04 07:20 | 26.05378 | -79.75440 | 10877 ft | 362 kts | 101° |
| 2026-05-04 07:22 | 26.01488 | -79.55305 | 15261 ft | 397 kts | 108° |
| 2026-05-04 07:22 | 26.00783 | -79.52322 | 15865 ft | 401 kts | 108° |
| 2026-05-04 07:23 | 26.00071 | -79.49305 | 16454 ft | 406 kts | 108° |
| 2026-05-04 07:23 | 25.99351 | -79.46254 | 17045 ft | 410 kts | 109° |
| 2026-05-04 07:23 | 25.98624 | -79.43173 | 17626 ft | 414 kts | 109° |
| 2026-05-04 07:23 | 25.97889 | -79.40070 | 18225 ft | 416 kts | 109° |
| 2026-05-04 07:24 | 25.97002 | -79.37004 | 18730 ft | 417 kts | 114° |
| 2026-05-04 07:24 | 25.95978 | -79.33974 | 19201 ft | 420 kts | 115° |
| 2026-05-04 07:24 | 25.94916 | -79.30927 | 19691 ft | 424 kts | 116° |
| 2026-05-04 07:24 | 25.93843 | -79.27859 | 20174 ft | 428 kts | 116° |
| 2026-05-04 07:25 | 25.92776 | -79.24806 | 20661 ft | 431 kts | 116° |
| 2026-05-04 07:26 | 25.84951 | -79.02409 | 23914 ft | 457 kts | 115° |
| 2026-05-04 07:27 | 25.83794 | -78.99108 | 24268 ft | 461 kts | 115° |
| 2026-05-04 07:27 | 25.82629 | -78.95784 | 24619 ft | 464 kts | 115° |
| 2026-05-04 07:27 | 25.81453 | -78.92432 | 24998 ft | 467 kts | 115° |
| 2026-05-04 07:27 | 25.80270 | -78.89064 | 25368 ft | 470 kts | 115° |
| 2026-05-04 07:28 | 25.79080 | -78.85676 | 25732 ft | 472 kts | 115° |
| 2026-05-04 07:28 | 25.77881 | -78.82269 | 26092 ft | 475 kts | 115° |
| 2026-05-04 07:28 | 25.76676 | -78.78846 | 26446 ft | 478 kts | 115° |
| 2026-05-04 07:28 | 25.75478 | -78.75445 | 26788 ft | 480 kts | 116° |
| 2026-05-04 07:29 | 25.74149 | -78.72048 | 27124 ft | 479 kts | 122° |
| 2026-05-04 07:29 | 25.72452 | -78.68873 | 27465 ft | 477 kts | 129° |
| 2026-05-04 07:29 | 25.70606 | -78.65812 | 27783 ft | 479 kts | 130° |
| 2026-05-04 07:29 | 25.68720 | -78.62752 | 28110 ft | 481 kts | 130° |
| 2026-05-04 07:30 | 25.66827 | -78.59684 | 28437 ft | 483 kts | 130° |
| 2026-05-04 07:30 | 25.64926 | -78.56599 | 28763 ft | 486 kts | 130° |
| 2026-05-04 07:30 | 25.63017 | -78.53498 | 29092 ft | 488 kts | 130° |
| 2026-05-04 07:30 | 25.61098 | -78.50380 | 29387 ft | 490 kts | 130° |
| 2026-05-04 07:31 | 25.59190 | -78.47230 | 29689 ft | 495 kts | 128° |
| 2026-05-04 07:31 | 25.57583 | -78.43814 | 29978 ft | 505 kts | 116° |
| 2026-05-04 07:33 | 25.50667 | -78.17357 | 32352 ft | 507 kts | 110° |
| 2026-05-04 07:33 | 25.49703 | -78.13602 | 32709 ft | 506 kts | 110° |
| 2026-05-04 07:33 | 25.48739 | -78.09856 | 33067 ft | 505 kts | 110° |
| 2026-05-04 07:33 | 25.47776 | -78.06116 | 33418 ft | 504 kts | 111° |
| 2026-05-04 07:34 | 25.46814 | -78.02387 | 33764 ft | 503 kts | 111° |
| 2026-05-04 07:34 | 25.45853 | -77.98666 | 34072 ft | 502 kts | 111° |
| 2026-05-04 07:34 | 25.44892 | -77.94955 | 34285 ft | 502 kts | 110° |
| 2026-05-04 07:34 | 25.43929 | -77.91240 | 34502 ft | 503 kts | 110° |
| 2026-05-04 07:35 | 25.42964 | -77.87518 | 34723 ft | 503 kts | 110° |
| 2026-05-04 07:35 | 25.42010 | -77.83839 | 34931 ft | 504 kts | 110° |
| 2026-05-04 07:35 | 25.41043 | -77.80112 | 35138 ft | 504 kts | 110° |
| 2026-05-04 07:35 | 25.40062 | -77.76340 | 35354 ft | 504 kts | 110° |
| 2026-05-04 07:36 | 25.39103 | -77.72655 | 35569 ft | 504 kts | 110° |
| 2026-05-04 07:36 | 25.38132 | -77.68926 | 35762 ft | 504 kts | 110° |
| 2026-05-04 07:38 | 25.31286 | -77.42775 | 37017 ft | 507 kts | 110° |
| 2026-05-04 07:38 | 25.30301 | -77.39033 | 37184 ft | 507 kts | 111° |
| 2026-05-04 07:38 | 25.29138 | -77.35385 | 37336 ft | 501 kts | 120° |
| 2026-05-04 07:38 | 25.27516 | -77.32005 | 37483 ft | 496 kts | 126° |
| 2026-05-04 07:39 | 25.25734 | -77.28748 | 37648 ft | 493 kts | 129° |
| 2026-05-04 07:39 | 25.23880 | -77.25558 | 37806 ft | 492 kts | 130° |
| 2026-05-04 07:39 | 25.21999 | -77.22401 | 37946 ft | 492 kts | 130° |
| 2026-05-04 07:39 | 25.20128 | -77.19278 | 38038 ft | 494 kts | 130° |
| 2026-05-04 07:40 | 25.18235 | -77.16102 | 38156 ft | 494 kts | 130° |
| 2026-05-04 07:40 | 25.16353 | -77.12923 | 38299 ft | 494 kts | 130° |
| 2026-05-04 07:40 | 25.14475 | -77.09732 | 38436 ft | 495 kts | 129° |
| 2026-05-04 07:40 | 25.12610 | -77.06551 | 38569 ft | 495 kts | 129° |
| 2026-05-04 07:41 | 25.10742 | -77.03358 | 38691 ft | 495 kts | 129° |
| 2026-05-04 07:41 | 25.08873 | -77.00165 | 38786 ft | 495 kts | 129° |
| 2026-05-04 07:41 | 25.05124 | -76.93764 | 38872 ft | 498 kts | 129° |
| 2026-05-04 07:42 | 25.01334 | -76.87312 | 38934 ft | 502 kts | 129° |
| 2026-05-04 07:42 | 24.97529 | -76.80837 | 38985 ft | 504 kts | 129° |
| 2026-05-04 07:43 | 24.93716 | -76.74355 | 38988 ft | 504 kts | 129° |
| 2026-05-04 07:43 | 24.89873 | -76.67838 | 38987 ft | 510 kts | 129° |
| 2026-05-04 07:44 | 24.86007 | -76.61293 | 38987 ft | 516 kts | 129° |
| 2026-05-04 07:44 | 24.82068 | -76.54631 | 38987 ft | 522 kts | 129° |
| 2026-05-04 07:45 | 24.78087 | -76.47903 | 38984 ft | 524 kts | 129° |
| 2026-05-04 07:45 | 24.74115 | -76.41191 | 38988 ft | 523 kts | 129° |
| 2026-05-04 07:46 | 24.70140 | -76.34490 | 38985 ft | 522 kts | 129° |
| 2026-05-04 07:46 | 24.66169 | -76.27807 | 38984 ft | 520 kts | 129° |
| 2026-05-04 07:47 | 24.62236 | -76.21199 | 38987 ft | 519 kts | 129° |
| 2026-05-04 07:49 | 24.46912 | -75.94337 | 38991 ft | 518 kts | 127° |
| 2026-05-04 07:49 | 24.43140 | -75.87592 | 38991 ft | 518 kts | 127° |
| 2026-05-04 07:50 | 24.39359 | -75.80858 | 38988 ft | 518 kts | 127° |
| 2026-05-04 07:50 | 24.35573 | -75.74129 | 38986 ft | 517 kts | 127° |
| 2026-05-04 07:51 | 24.31805 | -75.67437 | 38972 ft | 515 kts | 127° |
| 2026-05-04 07:51 | 24.28035 | -75.60754 | 38988 ft | 515 kts | 127° |
| 2026-05-04 07:52 | 24.24283 | -75.54110 | 38990 ft | 515 kts | 127° |
| 2026-05-04 07:52 | 24.20507 | -75.47433 | 38990 ft | 515 kts | 127° |
| 2026-05-04 07:54 | 24.05958 | -75.21789 | 38989 ft | 518 kts | 127° |
| 2026-05-04 07:55 | 24.02151 | -75.15100 | 38989 ft | 518 kts | 127° |
| 2026-05-04 07:55 | 23.98336 | -75.08407 | 38986 ft | 518 kts | 127° |
| 2026-05-04 07:56 | 23.94521 | -75.01722 | 38990 ft | 518 kts | 127° |
| 2026-05-04 07:56 | 23.90732 | -74.95092 | 38992 ft | 518 kts | 127° |
| 2026-05-04 07:57 | 23.86912 | -74.88419 | 38991 ft | 518 kts | 127° |
| 2026-05-04 07:57 | 23.83085 | -74.81739 | 38994 ft | 518 kts | 127° |
| 2026-05-04 07:58 | 23.79252 | -74.75060 | 38989 ft | 518 kts | 127° |
| 2026-05-04 07:58 | 23.75423 | -74.68397 | 38990 ft | 518 kts | 127° |
| 2026-05-04 07:59 | 23.71594 | -74.61742 | 38995 ft | 518 kts | 127° |
| 2026-05-04 07:59 | 23.67786 | -74.55132 | 38996 ft | 518 kts | 127° |
| 2026-05-04 08:00 | 23.63944 | -74.48473 | 38999 ft | 518 kts | 128° |
| 2026-05-04 08:02 | 23.48657 | -74.22055 | 38993 ft | 511 kts | 128° |
| 2026-05-04 08:02 | 23.44876 | -74.15547 | 38993 ft | 511 kts | 128° |
| 2026-05-04 08:03 | 23.41073 | -74.09009 | 38993 ft | 511 kts | 128° |
| 2026-05-04 08:03 | 23.37269 | -74.02474 | 38993 ft | 511 kts | 128° |
| 2026-05-04 08:04 | 23.33460 | -73.95939 | 38999 ft | 511 kts | 128° |
| 2026-05-04 08:04 | 23.29651 | -73.89413 | 38999 ft | 510 kts | 128° |
| 2026-05-04 08:05 | 23.25837 | -73.82887 | 38995 ft | 510 kts | 128° |
| 2026-05-04 08:05 | 23.22023 | -73.76371 | 38993 ft | 510 kts | 128° |
| 2026-05-04 08:06 | 23.18233 | -73.69902 | 38991 ft | 510 kts | 127° |
| 2026-05-04 08:06 | 23.14425 | -73.63410 | 38994 ft | 509 kts | 127° |
| 2026-05-04 08:08 | 22.99143 | -73.37445 | 38993 ft | 510 kts | 127° |
| 2026-05-04 08:11 | 22.81914 | -73.08326 | 38984 ft | 511 kts | 127° |
| 2026-05-04 08:11 | 22.76149 | -72.98618 | 38992 ft | 510 kts | 127° |
| 2026-05-04 08:12 | 22.72304 | -72.92154 | 38998 ft | 510 kts | 127° |
| 2026-05-04 08:12 | 22.68453 | -72.85689 | 38998 ft | 510 kts | 127° |
| 2026-05-04 08:13 | 22.64604 | -72.79233 | 38996 ft | 510 kts | 127° |
| 2026-05-04 08:13 | 22.60776 | -72.72822 | 38996 ft | 510 kts | 127° |
| 2026-05-04 08:14 | 22.56919 | -72.66369 | 38997 ft | 510 kts | 127° |
| 2026-05-04 08:16 | 22.41469 | -72.40600 | 38992 ft | 510 kts | 127° |
| 2026-05-04 08:16 | 22.37607 | -72.34178 | 38996 ft | 509 kts | 127° |
| 2026-05-04 08:17 | 22.33742 | -72.27760 | 38996 ft | 509 kts | 127° |
| 2026-05-04 08:17 | 22.29878 | -72.21351 | 39001 ft | 509 kts | 127° |
| 2026-05-04 08:19 | 22.14402 | -71.95756 | 39003 ft | 509 kts | 127° |
| 2026-05-04 08:20 | 22.10525 | -71.89364 | 38994 ft | 509 kts | 127° |
| 2026-05-04 08:20 | 22.06649 | -71.82982 | 38978 ft | 509 kts | 127° |
| 2026-05-04 08:21 | 22.02768 | -71.76598 | 38997 ft | 509 kts | 126° |
| 2026-05-04 08:21 | 21.98885 | -71.70217 | 38997 ft | 509 kts | 126° |
| 2026-05-04 08:22 | 21.94998 | -71.63839 | 38996 ft | 509 kts | 126° |
| 2026-05-04 08:24 | 21.79418 | -71.38346 | 38997 ft | 509 kts | 126° |
| 2026-05-04 08:24 | 21.75518 | -71.31983 | 38996 ft | 509 kts | 126° |
| 2026-05-04 08:25 | 21.71613 | -71.25620 | 38998 ft | 509 kts | 126° |
| 2026-05-04 08:25 | 21.67712 | -71.19272 | 38986 ft | 509 kts | 126° |
| 2026-05-04 08:27 | 21.51978 | -70.93966 | 39004 ft | 508 kts | 127° |
| 2026-05-04 08:28 | 21.48002 | -70.87738 | 38999 ft | 508 kts | 127° |
| 2026-05-04 08:28 | 21.43980 | -70.81434 | 39004 ft | 508 kts | 127° |
| 2026-05-04 08:29 | 21.39986 | -70.75171 | 39004 ft | 508 kts | 127° |
| 2026-05-04 08:31 | 21.23999 | -70.50159 | 39003 ft | 507 kts | 127° |
| 2026-05-04 08:33 | 21.08697 | -70.26325 | 39013 ft | 506 kts | 127° |
| 2026-05-04 08:35 | 20.92710 | -70.01531 | 39015 ft | 505 kts | 127° |
| 2026-05-04 08:35 | 20.88681 | -69.95300 | 39014 ft | 505 kts | 126° |
| 2026-05-04 08:37 | 20.74718 | -69.73759 | 39020 ft | 504 kts | 126° |
| 2026-05-04 08:38 | 20.70721 | -69.67606 | 39018 ft | 504 kts | 126° |
| 2026-05-04 08:38 | 20.66721 | -69.61456 | 39020 ft | 504 kts | 126° |
| 2026-05-04 08:40 | 20.50722 | -69.36926 | 39015 ft | 502 kts | 126° |
| 2026-05-04 08:41 | 20.46740 | -69.30835 | 39021 ft | 500 kts | 126° |
| 2026-05-04 08:41 | 20.42754 | -69.24746 | 39024 ft | 499 kts | 126° |
| 2026-05-04 08:42 | 20.38796 | -69.18705 | 39022 ft | 499 kts | 126° |
| 2026-05-04 08:42 | 20.34813 | -69.12634 | 39026 ft | 499 kts | 126° |
| 2026-05-04 08:43 | 20.30834 | -69.06574 | 39026 ft | 499 kts | 126° |
| 2026-05-04 08:43 | 20.26847 | -69.00509 | 39025 ft | 499 kts | 126° |
| 2026-05-04 08:44 | 20.22865 | -68.94457 | 39026 ft | 499 kts | 126° |
| 2026-05-04 08:46 | 20.06951 | -68.70278 | 39029 ft | 498 kts | 125° |
| 2026-05-04 08:46 | 20.03132 | -68.64138 | 39028 ft | 498 kts | 124° |
| 2026-05-04 08:47 | 19.99350 | -68.57973 | 39028 ft | 498 kts | 124° |
| 2026-05-04 08:47 | 19.95572 | -68.51844 | 39027 ft | 498 kts | 124° |
| 2026-05-04 08:48 | 19.91769 | -68.45704 | 39032 ft | 497 kts | 124° |
| 2026-05-04 08:48 | 19.87962 | -68.39576 | 39032 ft | 497 kts | 124° |
| 2026-05-04 08:49 | 19.84146 | -68.33439 | 39031 ft | 497 kts | 124° |
| 2026-05-04 08:50 | 19.70799 | -68.12019 | 39031 ft | 494 kts | 124° |
| 2026-05-04 08:51 | 19.67002 | -68.05939 | 39033 ft | 493 kts | 124° |
| 2026-05-04 08:51 | 19.63240 | -67.99921 | 39032 ft | 493 kts | 124° |
| 2026-05-04 08:52 | 19.59451 | -67.93868 | 39032 ft | 493 kts | 124° |
| 2026-05-04 08:52 | 19.55656 | -67.87809 | 39027 ft | 493 kts | 124° |
| 2026-05-04 08:54 | 19.40466 | -67.63618 | 39030 ft | 493 kts | 124° |
| 2026-05-04 08:55 | 19.36661 | -67.57573 | 39032 ft | 493 kts | 124° |
| 2026-05-04 08:55 | 19.32855 | -67.51533 | 39031 ft | 491 kts | 123° |
| 2026-05-04 09:01 | 18.93193 | -66.88931 | 38533 ft | 482 kts | 123° |
| 2026-05-04 09:01 | 18.91323 | -66.85995 | 37916 ft | 482 kts | 123° |
| 2026-05-04 09:01 | 18.89446 | -66.83049 | 37220 ft | 484 kts | 123° |
| 2026-05-04 09:01 | 18.87567 | -66.80102 | 36549 ft | 485 kts | 123° |
| 2026-05-04 09:02 | 18.85678 | -66.77140 | 35896 ft | 486 kts | 123° |
| 2026-05-04 09:02 | 18.83785 | -66.74172 | 35226 ft | 488 kts | 123° |
| 2026-05-04 09:02 | 18.81906 | -66.71229 | 34528 ft | 490 kts | 124° |
| 2026-05-04 09:02 | 18.79995 | -66.68237 | 33814 ft | 493 kts | 124° |
| 2026-05-04 09:03 | 18.78075 | -66.65230 | 33052 ft | 494 kts | 123° |
| 2026-05-04 09:03 | 18.76470 | -66.62003 | 32263 ft | 496 kts | 109° |
| 2026-05-04 09:03 | 18.75657 | -66.58459 | 31446 ft | 499 kts | 99° |
| 2026-05-04 09:03 | 18.75223 | -66.54816 | 30620 ft | 502 kts | 95° |
| 2026-05-04 09:04 | 18.74981 | -66.51164 | 29795 ft | 505 kts | 93° |
| 2026-05-04 09:04 | 18.74815 | -66.47483 | 29244 ft | 499 kts | 92° |
| 2026-05-04 09:04 | 18.74660 | -66.43846 | 28720 ft | 493 kts | 92° |
| 2026-05-04 09:04 | 18.74488 | -66.40253 | 28178 ft | 488 kts | 93° |
| 2026-05-04 09:05 | 18.74292 | -66.36681 | 27454 ft | 487 kts | 93° |
| 2026-05-04 09:05 | 18.74075 | -66.33116 | 26724 ft | 486 kts | 94° |
| 2026-05-04 09:05 | 18.73844 | -66.29564 | 26013 ft | 485 kts | 94° |
| 2026-05-04 09:05 | 18.73605 | -66.26013 | 25320 ft | 483 kts | 94° |
| 2026-05-04 09:06 | 18.73364 | -66.22490 | 24634 ft | 481 kts | 94° |
| 2026-05-04 09:07 | 18.71716 | -65.98491 | 19621 ft | 455 kts | 96° |
| 2026-05-04 09:08 | 18.71564 | -65.96285 | 19182 ft | 453 kts | 95° |
| 2026-05-04 09:08 | 18.71335 | -65.92979 | 18504 ft | 450 kts | 95° |
| 2026-05-04 09:08 | 18.71072 | -65.89704 | 17756 ft | 446 kts | 99° |
| 2026-05-04 09:08 | 18.70070 | -65.85552 | 16762 ft | 438 kts | 113° |
| 2026-05-04 09:09 | 18.68833 | -65.82639 | 16036 ft | 433 kts | 118° |
| 2026-05-04 09:09 | 18.67884 | -65.80752 | 15553 ft | 429 kts | 121° |
| 2026-05-04 09:09 | 18.66403 | -65.78078 | 14853 ft | 425 kts | 122° |
| 2026-05-04 09:09 | 18.64862 | -65.75449 | 14175 ft | 416 kts | 123° |
| 2026-05-04 09:10 | 18.63352 | -65.72915 | 13449 ft | 401 kts | 122° |
| 2026-05-04 09:10 | 18.61892 | -65.70458 | 12702 ft | 389 kts | 122° |
| 2026-05-04 09:10 | 18.60487 | -65.68072 | 11968 ft | 377 kts | 122° |
| 2026-05-04 09:10 | 18.59131 | -65.65746 | 11262 ft | 367 kts | 121° |
| 2026-05-04 09:11 | 18.57816 | -65.63473 | 10563 ft | 359 kts | 121° |
| 2026-05-04 09:11 | 18.56541 | -65.61258 | 9996 ft | 347 kts | 120° |
| 2026-05-04 09:11 | 18.55319 | -65.59129 | 9554 ft | 331 kts | 120° |
| 2026-05-04 09:11 | 18.54156 | -65.57104 | 9133 ft | 316 kts | 120° |
| 2026-05-04 09:12 | 18.53044 | -65.55167 | 8729 ft | 302 kts | 120° |
| 2026-05-04 09:12 | 18.51973 | -65.53303 | 8309 ft | 291 kts | 120° |
| 2026-05-04 09:14 | 18.45177 | -65.41089 | 6918 ft | 272 kts | 117° |
| 2026-05-04 09:14 | 18.44250 | -65.39353 | 6554 ft | 271 kts | 117° |
| 2026-05-04 09:14 | 18.43330 | -65.37629 | 6177 ft | 269 kts | 118° |
| 2026-05-04 09:14 | 18.42418 | -65.35922 | 5781 ft | 266 kts | 118° |
| 2026-05-04 09:15 | 18.41514 | -65.34230 | 5401 ft | 264 kts | 118° |
| 2026-05-04 09:15 | 18.40617 | -65.32554 | 5015 ft | 262 kts | 117° |
| 2026-05-04 09:15 | 18.39738 | -65.30910 | 4628 ft | 260 kts | 118° |
| 2026-05-04 09:15 | 18.38857 | -65.29263 | 4224 ft | 255 kts | 118° |
| 2026-05-04 09:17 | 18.33054 | -65.18137 | 2099 ft | 164 kts | 106° |
| 2026-05-04 09:18 | 18.32901 | -65.16953 | 2108 ft | 164 kts | 93° |
| 2026-05-04 09:18 | 18.32918 | -65.15752 | 2102 ft | 165 kts | 90° |
| 2026-05-04 09:18 | 18.32973 | -65.14549 | 2105 ft | 163 kts | 90° |
| 2026-05-04 09:18 | 18.33031 | -65.13359 | 2102 ft | 164 kts | 90° |
| 2026-05-04 09:19 | 18.33087 | -65.12158 | 2104 ft | 163 kts | 90° |
| 2026-05-04 09:19 | 18.33140 | -65.10977 | 2103 ft | 164 kts | 89° |
| 2026-05-04 09:19 | 18.33197 | -65.09764 | 2105 ft | 167 kts | 89° |
| 2026-05-04 09:19 | 18.33257 | -65.08538 | 2084 ft | 168 kts | 88° |
| 2026-05-04 09:20 | 18.33309 | -65.07342 | 1995 ft | 163 kts | 86° |
| 2026-05-04 09:20 | 18.33353 | -65.06160 | 1706 ft | 160 kts | 90° |
| 2026-05-04 09:20 | 18.33415 | -65.04993 | 1436 ft | 160 kts | 88° |
| 2026-05-04 09:20 | 18.33482 | -65.03832 | 1197 ft | 157 kts | 91° |
| 2026-05-04 09:21 | 18.33516 | -65.02686 | 934 ft | 157 kts | 92° |
| 2026-05-04 09:21 | 18.33565 | -65.01528 | 648 ft | 159 kts | 89° |
| 2026-05-04 09:21 | 18.33601 | -65.00354 | 481 ft | 162 kts | 89° |
| 2026-05-04 09:21 | 18.33652 | -64.99179 | 232 ft | 156 kts | 87° |
| 2026-05-04 09:22 | 18.33697 | -64.98082 | 49 ft | 144 kts | 88° |
| 2026-05-04 09:22 | 18.33737 | -64.97121 | 30 ft | 107 kts | 87° |
| 2026-05-04 09:22 | 18.33758 | -64.96653 | 27 ft | 22 kts | 89° |
| 2026-05-04 09:22 | 18.33765 | -64.96537 | 23 ft | 16 kts | 86° |
| 2026-05-04 09:23 | 18.33771 | -64.96422 | 22 ft | 16 kts | 88° |
| 2026-05-04 09:23 | 18.33731 | -64.96333 | 23 ft | 13 kts | 170° |
| 2026-05-04 09:23 | 18.33688 | -64.96367 | 27 ft | 7 kts | 261° |
| 2026-05-04 09:23 | 18.33687 | -64.96418 | 27 ft | 8 kts | 268° |
| 2026-05-04 09:25 | 18.33649 | -64.97328 | 30 ft | 16 kts | 266° |
| 2026-05-04 09:25 | 18.33617 | -64.97401 | 30 ft | 9 kts | 192° |
| 2026-05-04 09:26 | 18.33557 | -64.97398 | 30 ft | 9 kts | 177° |
| 2026-05-04 09:26 | 18.33495 | -64.97394 | 30 ft | 9 kts | 172° |
| 2026-05-04 09:26 | 18.33458 | -64.97371 | 30 ft | 0 kts | 133° |
| 2026-05-04 09:28 | 18.33452 | -64.97358 | 30 ft | 2 kts | 104° |
| 2026-05-04 09:29 | 18.33456 | -64.97343 | 30 ft | 3 kts | 63° |
| 2026-05-04 09:29 | 18.33473 | -64.97327 | 30 ft | 4 kts | 41° |
| 2026-05-04 09:29 | 18.33485 | -64.97316 | 30 ft | 0 kts | 42° |
| 2026-05-04 09:56 | 18.33468 | -64.97329 | 30 ft | 3 kts | 17° |
| 2026-05-04 09:56 | 18.33445 | -64.97331 | 30 ft | 3 kts | 348° |
| 2026-05-04 09:56 | 18.33422 | -64.97323 | 30 ft | 3 kts | 329° |
| 2026-05-04 09:57 | 18.33404 | -64.97309 | 30 ft | 2 kts | 313° |
| 2026-05-04 09:57 | 18.33403 | -64.97308 | 30 ft | 0 kts | 313° |
| 2026-05-04 10:02 | 18.33431 | -64.97340 | 24 ft | 2 kts | 313° |
| 2026-05-04 10:04 | 18.33433 | -64.97343 | 23 ft | 0 kts | 314° |
| 2026-05-04 10:04 | 18.33435 | -64.97344 | 32 ft | 2 kts | 314° |
| 2026-05-04 10:05 | 18.33454 | -64.97366 | 30 ft | 6 kts | 314° |
| 2026-05-04 10:05 | 18.33494 | -64.97392 | 30 ft | 8 kts | 346° |
| 2026-05-04 10:05 | 18.33555 | -64.97397 | 30 ft | 10 kts | 357° |
| 2026-05-04 10:05 | 18.33614 | -64.97423 | 30 ft | 9 kts | 297° |
| 2026-05-04 10:06 | 18.33613 | -64.97493 | 30 ft | 11 kts | 268° |
| 2026-05-04 10:06 | 18.33610 | -64.97574 | 30 ft | 12 kts | 268° |
| 2026-05-04 10:06 | 18.33606 | -64.97677 | 30 ft | 15 kts | 266° |
| 2026-05-04 10:08 | 18.33609 | -64.98327 | 30 ft | 0 kts | 352° |
| 2026-05-04 10:09 | 18.33618 | -64.98328 | 31 ft | 3 kts | 352° |
| 2026-05-04 10:09 | 18.33652 | -64.98329 | 30 ft | 7 kts | 4° |
| 2026-05-04 10:09 | 18.33692 | -64.98303 | 30 ft | 7 kts | 76° |
| 2026-05-04 10:10 | 18.33691 | -64.98266 | 30 ft | 0 kts | 87° |
| 2026-05-04 10:10 | 18.33691 | -64.98263 | 30 ft | 4 kts | 87° |
| 2026-05-04 10:10 | 18.33701 | -64.98014 | 31 ft | 70 kts | 87° |
| 2026-05-04 10:10 | 18.33735 | -64.97227 | 31 ft | 145 kts | 87° |
| 2026-05-04 10:11 | 18.33789 | -64.96060 | 507 ft | 164 kts | 89° |
| 2026-05-04 10:11 | 18.33697 | -64.94838 | 1146 ft | 179 kts | 113° |
| 2026-05-04 10:11 | 18.32729 | -64.93931 | 1579 ft | 204 kts | 159° |
| 2026-05-04 10:11 | 18.31261 | -64.94035 | 2117 ft | 229 kts | 201° |
| 2026-05-04 10:12 | 18.30070 | -64.95225 | 2726 ft | 249 kts | 236° |
| 2026-05-04 10:12 | 18.29245 | -64.96839 | 3490 ft | 250 kts | 239° |
| 2026-05-04 10:12 | 18.28414 | -64.98452 | 4154 ft | 252 kts | 238° |
| 2026-05-04 10:12 | 18.27600 | -65.00096 | 4781 ft | 255 kts | 243° |
| 2026-05-04 10:13 | 18.26958 | -65.01853 | 5425 ft | 258 kts | 252° |
| 2026-05-04 10:13 | 18.26589 | -65.03679 | 6038 ft | 260 kts | 262° |
| 2026-05-04 10:13 | 18.26511 | -65.05590 | 6627 ft | 262 kts | 272° |
| 2026-05-04 10:13 | 18.26703 | -65.07498 | 7188 ft | 263 kts | 279° |
| 2026-05-04 10:14 | 18.26990 | -65.09399 | 7786 ft | 263 kts | 280° |
| 2026-05-04 10:14 | 18.27190 | -65.10660 | 8118 ft | 269 kts | 279° |
| 2026-05-04 10:16 | 18.29695 | -65.26320 | 11162 ft | 350 kts | 282° |
| 2026-05-04 10:16 | 18.30211 | -65.28841 | 11677 ft | 355 kts | 282° |
| 2026-05-04 10:16 | 18.30754 | -65.31409 | 12160 ft | 361 kts | 282° |
| 2026-05-04 10:16 | 18.31306 | -65.33996 | 12776 ft | 363 kts | 282° |
| 2026-05-04 10:17 | 18.31857 | -65.36598 | 13393 ft | 365 kts | 282° |
| 2026-05-04 10:17 | 18.32412 | -65.39240 | 14011 ft | 366 kts | 281° |
| 2026-05-04 10:19 | 18.36247 | -65.57851 | 17962 ft | 378 kts | 280° |
| 2026-05-04 10:19 | 18.36804 | -65.60568 | 18481 ft | 380 kts | 280° |
| 2026-05-04 10:19 | 18.37361 | -65.63288 | 18885 ft | 383 kts | 281° |
| 2026-05-04 10:19 | 18.37927 | -65.66056 | 19259 ft | 387 kts | 281° |
| 2026-05-04 10:20 | 18.38497 | -65.68843 | 19672 ft | 390 kts | 281° |
| 2026-05-04 10:20 | 18.39069 | -65.71643 | 20049 ft | 394 kts | 281° |
| 2026-05-04 10:20 | 18.39650 | -65.74485 | 20434 ft | 398 kts | 281° |
| 2026-05-04 10:20 | 18.40235 | -65.77345 | 20852 ft | 400 kts | 281° |
| 2026-05-04 10:21 | 18.40815 | -65.80182 | 21255 ft | 403 kts | 281° |
| 2026-05-04 10:21 | 18.41407 | -65.83083 | 21623 ft | 407 kts | 281° |
| 2026-05-04 10:21 | 18.42004 | -65.86012 | 22017 ft | 411 kts | 281° |
| 2026-05-04 10:21 | 18.42605 | -65.88969 | 22402 ft | 414 kts | 282° |
| 2026-05-04 10:22 | 18.43930 | -65.94930 | 23172 ft | 422 kts | 288° |
| 2026-05-04 10:22 | 18.45024 | -65.97806 | 23546 ft | 426 kts | 297° |
| 2026-05-04 10:22 | 18.46576 | -66.00484 | 23887 ft | 428 kts | 307° |
| 2026-05-04 10:23 | 18.48513 | -66.02873 | 24297 ft | 428 kts | 313° |
| 2026-05-04 10:23 | 18.50585 | -66.05125 | 24698 ft | 428 kts | 315° |
| 2026-05-04 10:25 | 18.65766 | -66.20322 | 27434 ft | 432 kts | 315° |
| 2026-05-04 10:25 | 18.67945 | -66.22530 | 27666 ft | 436 kts | 315° |
| 2026-05-04 10:25 | 18.70136 | -66.24754 | 27947 ft | 439 kts | 315° |
| 2026-05-04 10:25 | 18.72342 | -66.26995 | 28224 ft | 441 kts | 315° |
| 2026-05-04 10:26 | 18.74554 | -66.29242 | 28550 ft | 442 kts | 315° |
| 2026-05-04 10:26 | 18.76778 | -66.31502 | 28872 ft | 443 kts | 315° |
| 2026-05-04 10:26 | 18.79005 | -66.33765 | 29174 ft | 445 kts | 315° |
| 2026-05-04 10:26 | 18.81246 | -66.36043 | 29441 ft | 447 kts | 315° |
| 2026-05-04 10:27 | 18.83493 | -66.38328 | 29735 ft | 449 kts | 315° |
| 2026-05-04 10:27 | 18.85718 | -66.40590 | 30036 ft | 450 kts | 315° |
| 2026-05-04 10:27 | 18.87972 | -66.42883 | 30375 ft | 449 kts | 315° |
| 2026-05-04 10:27 | 18.90220 | -66.45171 | 30721 ft | 448 kts | 315° |
| 2026-05-04 10:28 | 18.92421 | -66.47492 | 31056 ft | 446 kts | 311° |
| 2026-05-04 10:28 | 18.94475 | -66.49943 | 31371 ft | 445 kts | 310° |
| 2026-05-04 10:28 | 18.96502 | -66.52427 | 31677 ft | 445 kts | 309° |
| 2026-05-04 10:28 | 18.98506 | -66.54923 | 31970 ft | 445 kts | 309° |
| 2026-05-04 10:29 | 19.00497 | -66.57424 | 32286 ft | 444 kts | 309° |
| 2026-05-04 10:29 | 19.02478 | -66.59922 | 32576 ft | 443 kts | 309° |
| 2026-05-04 10:29 | 19.04460 | -66.62420 | 32886 ft | 442 kts | 309° |
| 2026-05-04 10:29 | 19.06435 | -66.64909 | 33216 ft | 441 kts | 309° |
| 2026-05-04 10:30 | 19.08408 | -66.67393 | 33465 ft | 441 kts | 309° |
| 2026-05-04 10:30 | 19.10359 | -66.69849 | 33722 ft | 441 kts | 309° |
| 2026-05-04 10:30 | 19.12331 | -66.72330 | 33998 ft | 441 kts | 309° |
| 2026-05-04 10:31 | 19.16292 | -66.77314 | 34045 ft | 442 kts | 309° |
| 2026-05-04 10:32 | 19.30098 | -66.94718 | 34051 ft | 443 kts | 309° |
| 2026-05-04 10:33 | 19.34054 | -66.99715 | 34046 ft | 443 kts | 309° |
| 2026-05-04 10:33 | 19.38008 | -67.04714 | 34048 ft | 442 kts | 309° |
| 2026-05-04 10:34 | 19.41934 | -67.09680 | 34049 ft | 442 kts | 309° |
| 2026-05-04 10:34 | 19.45885 | -67.14683 | 34047 ft | 443 kts | 309° |
| 2026-05-04 10:35 | 19.49845 | -67.19701 | 34043 ft | 443 kts | 309° |
| 2026-05-04 10:35 | 19.53791 | -67.24706 | 34045 ft | 442 kts | 309° |
| 2026-05-04 10:36 | 19.57735 | -67.29712 | 34047 ft | 442 kts | 309° |
| 2026-05-04 10:36 | 19.61682 | -67.34727 | 34044 ft | 443 kts | 309° |
| 2026-05-04 10:37 | 19.65639 | -67.39759 | 34044 ft | 443 kts | 309° |
| 2026-05-04 10:37 | 19.69601 | -67.44800 | 34045 ft | 444 kts | 308° |
| 2026-05-04 10:39 | 19.83408 | -67.62405 | 34045 ft | 443 kts | 308° |
| 2026-05-04 10:40 | 19.87359 | -67.67452 | 34042 ft | 443 kts | 308° |
| 2026-05-04 10:40 | 19.91299 | -67.72490 | 34043 ft | 443 kts | 308° |
| 2026-05-04 10:41 | 19.95241 | -67.77534 | 34042 ft | 443 kts | 308° |
| 2026-05-04 10:41 | 19.99155 | -67.82547 | 34042 ft | 443 kts | 308° |
| 2026-05-04 10:42 | 20.03098 | -67.87602 | 34042 ft | 443 kts | 308° |
| 2026-05-04 10:42 | 20.07033 | -67.92650 | 34042 ft | 443 kts | 308° |
| 2026-05-04 10:43 | 20.10972 | -67.97708 | 34042 ft | 443 kts | 308° |
| 2026-05-04 10:45 | 20.26711 | -68.17963 | 34045 ft | 443 kts | 308° |
| 2026-05-04 10:45 | 20.30614 | -68.22996 | 34040 ft | 443 kts | 308° |
| 2026-05-04 10:46 | 20.34559 | -68.28088 | 34044 ft | 442 kts | 308° |
| 2026-05-04 10:46 | 20.38449 | -68.33115 | 34046 ft | 442 kts | 308° |
| 2026-05-04 10:47 | 20.42364 | -68.38180 | 34042 ft | 441 kts | 307° |
| 2026-05-04 10:47 | 20.45753 | -68.43601 | 34043 ft | 439 kts | 300° |
| 2026-05-04 10:49 | 20.58149 | -68.66081 | 34041 ft | 439 kts | 298° |
| 2026-05-04 10:50 | 20.60716 | -68.70750 | 34038 ft | 439 kts | 298° |
| 2026-05-04 10:52 | 20.73035 | -68.93208 | 34038 ft | 438 kts | 298° |
| 2026-05-04 10:52 | 20.76112 | -68.98833 | 34037 ft | 438 kts | 298° |
| 2026-05-04 10:54 | 20.88364 | -69.21284 | 34038 ft | 436 kts | 298° |
| 2026-05-04 10:56 | 21.00572 | -69.43745 | 34035 ft | 436 kts | 298° |
| 2026-05-04 10:57 | 21.03617 | -69.49362 | 34028 ft | 436 kts | 298° |
| 2026-05-04 10:57 | 21.06662 | -69.54984 | 34042 ft | 436 kts | 297° |
| 2026-05-04 10:58 | 21.09707 | -69.60611 | 34039 ft | 437 kts | 297° |
| 2026-05-04 10:58 | 21.12750 | -69.66241 | 34026 ft | 437 kts | 297° |
| 2026-05-04 10:59 | 21.15812 | -69.71912 | 34025 ft | 437 kts | 297° |
| 2026-05-04 10:59 | 21.18832 | -69.77511 | 34025 ft | 437 kts | 297° |
| 2026-05-04 11:00 | 21.21889 | -69.83183 | 34036 ft | 436 kts | 297° |
| 2026-05-04 11:02 | 21.33962 | -70.05649 | 34031 ft | 434 kts | 297° |
| 2026-05-04 11:05 | 21.56475 | -70.47785 | 34026 ft | 434 kts | 296° |